Time;durP1;ratioP1;P1;durP2;ratioP2;P2;SDS_P1;SDS_P2;PMS_P1;PMS_P2;Temp;Humidity;BMP_temperature;BMP_pressure;BME280_temperature;BME280_humidity;BME280_pressure;Samples;Min_cycle;Max_cycle;Signal;HPM_P1;HPM_P2
2023/04/03 00:01:07;;;;;;;9.98;4.35;;;1.00;99.90;;;;;;4934072;28;20499;-95
2023/04/03 00:03:37;;;;;;;6.55;2.83;;;1.70;99.90;;;;;;4933292;28;20440;-95
2023/04/03 00:06:05;;;;;;;3.87;1.80;;;1.00;99.90;;;;;;4933858;28;20568;-95
2023/04/03 00:08:32;;;;;;;3.50;1.20;;;1.00;99.90;;;;;;4934766;28;20532;-92
2023/04/03 00:10:58;;;;;;;3.83;1.20;;;1.00;99.90;;;;;;4933533;28;20427;-93
2023/04/03 00:13:24;;;;;;;3.30;1.27;;;1.20;99.90;;;;;;4934646;28;20423;-95
2023/04/03 00:15:51;;;;;;;3.38;1.45;;;1.00;99.90;;;;;;4948045;28;20963;-94
2023/04/03 00:18:17;;;;;;;4.30;1.70;;;1.30;99.90;;;;;;4934471;28;20420;-93
2023/04/03 00:20:43;;;;;;;5.55;1.60;;;1.40;99.90;;;;;;4932744;28;20412;-95
2023/04/03 00:23:09;;;;;;;3.58;1.60;;;1.10;99.90;;;;;;4933873;28;20491;-94
2023/04/03 00:25:36;;;;;;;4.78;1.67;;;1.00;99.90;;;;;;4933643;28;20440;-94
2023/04/03 00:28:03;;;;;;;4.22;1.30;;;0.90;99.90;;;;;;4932734;28;20411;-95
2023/04/03 00:30:28;;;;;;;3.95;1.50;;;1.00;99.90;;;;;;4935853;28;20420;-95
2023/04/03 00:32:57;;;;;;;4.33;1.47;;;0.90;99.90;;;;;;4932656;28;20425;-95
2023/04/03 00:35:24;;;;;;;5.35;1.63;;;0.90;99.90;;;;;;4935342;28;20420;-94
2023/04/03 00:38:05;;;;;;;4.20;1.48;;;1.30;99.90;;;;;;4935483;28;20407;-94
2023/04/03 00:40:36;;;;;;;3.42;1.42;;;0.90;99.90;;;;;;4935748;28;20459;-93
2023/04/03 00:43:08;;;;;;;3.42;1.30;;;1.10;99.90;;;;;;4935682;28;20755;-94
2023/04/03 00:45:39;;;;;;;3.70;1.45;;;1.30;99.90;;;;;;4934226;28;20436;-95
2023/04/03 00:48:09;;;;;;;4.00;1.20;;;1.40;99.90;;;;;;4939750;28;20412;-96
2023/04/03 00:50:41;;;;;;;3.83;1.20;;;0.80;99.90;;;;;;4936195;28;21596;-93
2023/04/03 00:53:16;;;;;;;4.83;1.10;;;1.20;99.90;;;;;;4954550;28;20409;-94
2023/04/03 00:55:42;;;;;;;4.60;1.20;;;0.80;99.90;;;;;;4936195;28;20463;-95
2023/04/03 00:58:09;;;;;;;2.83;0.80;;;0.90;99.90;;;;;;4937782;28;20446;-94
2023/04/03 01:00:40;;;;;;;3.70;1.10;;;0.80;99.90;;;;;;4937749;28;20848;-94
2023/04/03 01:03:09;;;;;;;2.97;0.70;;;0.90;99.90;;;;;;4937871;28;20423;-95
2023/04/03 01:05:39;;;;;;;2.60;0.90;;;0.80;99.90;;;;;;4940052;28;20456;-94
2023/04/03 01:08:11;;;;;;;3.10;0.70;;;0.80;99.90;;;;;;4954096;28;20480;-94
2023/04/03 01:10:45;;;;;;;2.92;0.50;;;0.70;99.90;;;;;;4939586;28;20416;-95
2023/04/03 01:13:28;;;;;;;2.13;0.50;;;0.80;99.90;;;;;;4955189;28;20416;-96
2023/04/03 01:15:54;;;;;;;2.03;0.60;;;0.80;99.90;;;;;;4937070;28;20428;-95
2023/04/03 01:18:22;;;;;;;3.03;0.60;;;0.90;99.90;;;;;;4937150;28;20411;-94
2023/04/03 01:21:16;;;;;;;2.53;0.40;;;0.70;99.90;;;;;;4936944;28;20412;-94
2023/04/03 01:23:53;;;;;;;3.83;0.60;;;0.80;99.90;;;;;;4953273;28;20434;-94
2023/04/03 01:26:18;;;;;;;2.37;0.60;;;0.80;99.90;;;;;;4951606;28;20478;-93
2023/04/03 01:28:44;;;;;;;3.40;0.40;;;1.10;99.90;;;;;;4937577;28;20412;-95
2023/04/03 01:31:27;;;;;;;2.57;0.50;;;0.80;99.90;;;;;;4936135;28;20413;-95
2023/04/03 01:33:54;;;;;;;2.25;0.45;;;0.70;99.90;;;;;;4935796;28;20415;-95
2023/04/03 01:36:30;;;;;;;1.88;0.50;;;0.70;99.90;;;;;;4936539;28;20507;-95
2023/04/03 01:38:59;;;;;;;2.97;0.50;;;0.60;99.90;;;;;;4937470;28;20439;-95
2023/04/03 01:41:26;;;;;;;3.35;0.57;;;0.80;99.90;;;;;;4936712;28;20479;-94
2023/04/03 01:43:59;;;;;;;3.00;0.60;;;0.90;99.90;;;;;;4936642;28;20396;-94
2023/04/03 01:46:47;;;;;;;3.25;0.50;;;0.60;99.90;;;;;;4936848;28;20455;-94
2023/04/03 01:49:13;;;;;;;2.28;0.50;;;0.80;99.90;;;;;;4936129;28;20408;-93
2023/04/03 01:51:55;;;;;;;2.38;0.40;;;0.60;99.90;;;;;;4935539;28;20400;-95
2023/04/03 01:54:21;;;;;;;2.35;0.55;;;0.50;99.90;;;;;;4935673;28;20420;-94
2023/04/03 01:56:47;;;;;;;2.75;0.50;;;0.40;99.90;;;;;;4933780;28;20439;-94
2023/04/03 01:59:12;;;;;;;2.95;0.70;;;0.50;99.90;;;;;;4935792;28;20428;-95
2023/04/03 02:01:39;;;;;;;5.85;0.82;;;0.60;99.90;;;;;;4933854;28;20412;-94
2023/04/03 02:04:05;;;;;;;3.13;0.70;;;0.40;99.90;;;;;;4936155;28;20416;-94
2023/04/03 02:06:31;;;;;;;3.00;0.70;;;0.30;99.90;;;;;;4935199;28;20419;-94
2023/04/03 02:08:56;;;;;;;2.75;0.57;;;0.40;99.90;;;;;;4935554;28;20767;-94
2023/04/03 02:11:30;;;;;;;2.65;0.68;;;0.40;99.90;;;;;;4935212;28;20486;-95
2023/04/03 02:13:56;;;;;;;2.73;0.60;;;0.50;99.90;;;;;;4935103;28;20404;-94
2023/04/03 02:16:24;;;;;;;3.60;0.50;;;0.60;99.90;;;;;;4934980;28;20435;-94
2023/04/03 02:18:50;;;;;;;3.40;0.60;;;0.40;99.90;;;;;;4933959;28;20698;-95
2023/04/03 02:21:16;;;;;;;3.67;0.80;;;0.30;99.90;;;;;;4935749;28;20470;-94
2023/04/03 02:23:41;;;;;;;1.60;0.50;;;0.20;99.90;;;;;;4934438;28;20416;-91
2023/04/03 02:26:12;;;;;;;3.45;0.57;;;0.40;99.90;;;;;;4935958;28;20417;-94
2023/04/03 02:28:41;;;;;;;2.28;0.47;;;0.20;99.90;;;;;;4935501;28;20420;-95
2023/04/03 02:31:07;;;;;;;2.72;0.60;;;0.50;99.90;;;;;;4935195;28;20452;-95
2023/04/03 02:33:36;;;;;;;3.50;0.53;;;0.20;99.90;;;;;;4934604;28;20436;-95
2023/04/03 02:36:08;;;;;;;3.15;0.68;;;0.20;99.90;;;;;;4933771;28;20505;-95
2023/04/03 02:38:50;;;;;;;2.50;0.80;;;0.20;99.90;;;;;;4935089;28;20850;-95
2023/04/03 02:41:16;;;;;;;2.60;0.47;;;0.20;99.90;;;;;;4932981;28;20424;-95
2023/04/03 02:43:44;;;;;;;3.10;0.52;;;0.80;99.90;;;;;;4936541;28;20413;-96
2023/04/03 02:46:26;;;;;;;2.63;0.80;;;0.30;99.90;;;;;;4933326;28;20412;-94
2023/04/03 02:48:52;;;;;;;3.28;0.52;;;0.10;99.90;;;;;;4934135;28;20412;-94
2023/04/03 02:51:24;;;;;;;2.73;0.60;;;0.20;99.90;;;;;;4934540;28;21038;-95
2023/04/03 02:53:55;;;;;;;2.65;0.70;;;0.10;99.90;;;;;;4933750;28;20408;-96
2023/04/03 02:56:21;;;;;;;2.92;0.50;;;0.30;99.90;;;;;;4934661;28;20436;-96
2023/04/03 02:58:47;;;;;;;3.47;0.60;;;-0.10;99.90;;;;;;4932737;28;20427;-94
2023/04/03 03:01:14;;;;;;;4.60;0.80;;;0.20;99.90;;;;;;4935228;28;20471;-95
2023/04/03 03:03:39;;;;;;;3.47;1.23;;;0.10;99.90;;;;;;4932421;28;20404;-95
2023/04/03 03:06:09;;;;;;;4.18;1.10;;;0.10;99.90;;;;;;4934524;28;20424;-95
2023/04/03 03:08:36;;;;;;;3.33;0.73;;;-0.10;99.90;;;;;;4933066;28;20966;-95
2023/04/03 03:11:02;;;;;;;1.85;0.60;;;-0.20;99.90;;;;;;4932928;28;20412;-95
2023/04/03 03:13:37;;;;;;;4.05;0.80;;;-0.20;99.90;;;;;;4933873;28;20409;-94
2023/04/03 03:16:05;;;;;;;2.83;0.90;;;-0.20;99.90;;;;;;4932667;28;20443;-95
2023/04/03 03:18:31;;;;;;;3.78;0.73;;;-0.20;99.90;;;;;;4935092;28;20504;-94
2023/04/03 03:20:59;;;;;;;4.28;0.90;;;-0.20;99.90;;;;;;4933585;28;20427;-95
2023/04/03 03:23:27;;;;;;;3.05;0.65;;;-0.40;99.90;;;;;;4934844;28;20693;-96
2023/04/03 03:25:58;;;;;;;3.33;0.70;;;-0.30;99.90;;;;;;4933014;28;20499;-95
2023/04/03 03:28:24;;;;;;;3.35;0.90;;;-0.30;99.90;;;;;;4933421;28;20416;-95
2023/04/03 03:30:55;;;;;;;4.82;1.00;;;-0.30;99.90;;;;;;4933856;28;20422;-95
2023/04/03 03:33:21;;;;;;;3.97;0.98;;;-0.30;99.90;;;;;;4932858;28;20415;-94
2023/04/03 03:35:47;;;;;;;5.33;1.20;;;-0.40;99.90;;;;;;4934023;28;20432;-96
2023/04/03 03:38:13;;;;;;;5.30;1.17;;;0.00;99.90;;;;;;4932298;28;20922;-95
2023/04/03 03:40:39;;;;;;;2.85;0.70;;;-0.40;99.90;;;;;;4934888;28;20400;-95
2023/04/03 03:43:07;;;;;;;2.87;0.63;;;-0.40;99.90;;;;;;4932306;28;20471;-95
2023/04/03 03:45:36;;;;;;;7.28;1.88;;;-0.20;99.90;;;;;;4933205;28;20427;-95
2023/04/03 03:48:04;;;;;;;23.00;9.17;;;-0.70;99.90;;;;;;4933373;28;20448;-96
2023/04/03 03:50:30;;;;;;;20.75;8.90;;;-0.60;99.90;;;;;;4932357;28;20423;-95
2023/04/03 03:52:56;;;;;;;19.67;8.95;;;-0.40;99.90;;;;;;4934204;28;20412;-95
2023/04/03 03:55:21;;;;;;;7.60;1.83;;;-0.70;99.90;;;;;;4932444;28;20463;-96
2023/04/03 03:57:47;;;;;;;4.85;1.45;;;-0.70;99.90;;;;;;4934360;28;20823;-95
2023/04/03 04:00:17;;;;;;;6.50;1.23;;;-0.70;99.90;;;;;;4932190;28;20416;-95
2023/04/03 04:02:43;;;;;;;4.70;1.08;;;-0.80;99.90;;;;;;4934240;28;20442;-95
2023/04/03 04:05:09;;;;;;;4.65;1.20;;;-0.80;99.90;;;;;;4933046;28;20418;-96
2023/04/03 04:07:38;;;;;;;5.85;1.10;;;-0.80;99.90;;;;;;4933229;28;20463;-96
2023/04/03 04:10:04;;;;;;;4.38;1.00;;;-0.80;99.90;;;;;;4933668;28;20413;-94
2023/04/03 04:12:32;;;;;;;3.90;0.80;;;-1.00;99.90;;;;;;4931834;28;20468;-95
2023/04/03 04:15:05;;;;;;;3.72;1.02;;;-0.90;99.90;;;;;;4933902;28;20408;-96
2023/04/03 04:18:04;;;;;;;;;;;;;;;;;;;;;
2023/04/03 04:20:30;;;;;;;4.70;1.23;;;-0.90;99.90;;;;;;4950830;28;20795;-94
2023/04/03 04:22:56;;;;;;;4.03;1.13;;;-0.80;99.90;;;;;;4937610;28;20423;-95
2023/04/03 04:25:21;;;;;;;4.40;1.20;;;-0.90;99.90;;;;;;4938741;28;20490;-95
2023/04/03 04:27:47;;;;;;;5.90;1.30;;;-0.40;99.90;;;;;;4937875;28;20420;-94
2023/04/03 04:30:13;;;;;;;3.97;1.07;;;-0.70;99.90;;;;;;4937502;28;20416;-95
2023/04/03 04:32:39;;;;;;;4.45;1.02;;;-0.80;99.90;;;;;;4938207;28;20408;-95
2023/04/03 04:35:05;;;;;;;8.67;1.53;;;-0.80;99.90;;;;;;4936725;28;20412;-95
2023/04/03 04:37:31;;;;;;;4.13;1.10;;;-0.80;99.90;;;;;;4937910;28;20431;-94
2023/04/03 04:39:56;;;;;;;5.28;1.20;;;-0.80;99.90;;;;;;4936334;28;20905;-95
2023/04/03 04:42:22;;;;;;;6.20;1.50;;;-0.70;99.90;;;;;;4938562;28;20416;-94
2023/04/03 04:44:53;;;;;;;4.80;1.33;;;-0.80;99.90;;;;;;4937330;28;20451;-95
2023/04/03 04:47:19;;;;;;;5.80;2.00;;;-0.80;99.90;;;;;;4937040;28;20547;-94
2023/04/03 04:49:45;;;;;;;7.40;1.90;;;-0.80;99.90;;;;;;4937303;28;20467;-94
2023/04/03 04:52:11;;;;;;;5.77;1.30;;;-0.80;99.90;;;;;;4936711;28;20405;-95
2023/04/03 04:54:36;;;;;;;4.32;1.30;;;-0.70;99.90;;;;;;4938308;28;20487;-94
2023/04/03 04:57:02;;;;;;;5.17;1.10;;;-0.80;99.90;;;;;;4935993;28;20440;-95
2023/04/03 04:59:27;;;;;;;5.10;1.40;;;-0.80;99.90;;;;;;4938005;28;20416;-95
2023/04/03 05:01:53;;;;;;;5.65;1.30;;;-0.70;99.90;;;;;;4936075;28;20416;-95
2023/04/03 05:04:19;;;;;;;6.88;1.80;;;-0.40;99.90;;;;;;4937645;28;20954;-94
2023/04/03 05:06:45;;;;;;;7.30;1.80;;;-1.00;99.90;;;;;;4936735;28;20595;-93
2023/04/03 05:09:10;;;;;;;5.53;1.70;;;-0.80;99.90;;;;;;4936940;28;20430;-95
2023/04/03 05:11:36;;;;;;;7.00;1.70;;;-0.70;99.90;;;;;;4936839;28;20432;-94
2023/04/03 05:14:05;;;;;;;5.85;1.67;;;-0.80;99.90;;;;;;4951973;28;20468;-94
2023/04/03 05:16:30;;;;;;;6.53;1.70;;;-0.80;99.90;;;;;;4937105;28;20930;-94
2023/04/03 05:18:56;;;;;;;5.93;1.73;;;-0.80;99.90;;;;;;4935604;28;20475;-95
2023/04/03 05:21:24;;;;;;;6.97;1.80;;;-0.80;99.90;;;;;;4937918;28;20419;-94
2023/04/03 05:23:50;;;;;;;5.97;1.60;;;-0.80;99.90;;;;;;4937124;28;20442;-94
2023/04/03 05:26:16;;;;;;;6.07;1.77;;;-0.80;99.90;;;;;;4937206;28;20477;-95
2023/04/03 05:28:41;;;;;;;7.47;1.63;;;-0.60;99.90;;;;;;4936463;28;20420;-94
2023/04/03 05:31:07;;;;;;;6.25;1.70;;;-0.60;99.90;;;;;;4936499;28;20444;-93
2023/04/03 05:33:33;;;;;;;6.45;1.92;;;-0.60;99.90;;;;;;4935872;28;20408;-95
2023/04/03 05:36:05;;;;;;;5.88;1.60;;;-0.50;99.90;;;;;;4936053;28;20878;-95
2023/04/03 05:38:32;;;;;;;6.20;1.63;;;-0.40;99.90;;;;;;4937025;28;20431;-93
2023/04/03 05:40:57;;;;;;;6.93;1.95;;;-0.50;99.90;;;;;;4936794;28;20446;-93
2023/04/03 05:43:23;;;;;;;9.73;2.00;;;-0.20;99.90;;;;;;4937961;28;20451;-93
2023/04/03 05:45:49;;;;;;;6.82;2.25;;;-0.10;99.90;;;;;;4936203;28;20995;-94
2023/04/03 05:48:14;;;;;;;6.78;2.15;;;-0.20;99.90;;;;;;4936196;28;20416;-94
2023/04/03 05:50:42;;;;;;;4.75;1.60;;;-0.20;99.90;;;;;;4936307;28;20424;-94
2023/04/03 05:53:17;;;;;;;6.80;2.20;;;-0.10;99.90;;;;;;4951039;28;20416;-93
2023/04/03 05:55:43;;;;;;;6.95;2.00;;;0.00;99.90;;;;;;4937058;28;20799;-93
2023/04/03 05:58:09;;;;;;;7.88;2.38;;;0.00;99.90;;;;;;4935744;28;20423;-93
2023/04/03 06:00:34;;;;;;;7.25;2.10;;;0.20;99.90;;;;;;4936843;28;20408;-93
2023/04/03 06:03:00;;;;;;;6.10;2.27;;;0.20;99.90;;;;;;4935763;28;20414;-94
2023/04/03 06:05:26;;;;;;;7.47;2.17;;;0.30;99.90;;;;;;4936784;28;20404;-94
2023/04/03 06:07:51;;;;;;;6.53;2.15;;;0.60;99.90;;;;;;4936386;28;20519;-93
2023/04/03 06:10:17;;;;;;;5.72;2.03;;;0.50;99.90;;;;;;4935403;28;20926;-93
2023/04/03 06:12:43;;;;;;;6.28;2.00;;;0.60;99.90;;;;;;4936534;28;20839;-93
2023/04/03 06:15:10;;;;;;;5.40;1.90;;;0.60;99.90;;;;;;4951650;28;20454;-93
2023/04/03 06:17:37;;;;;;;8.00;2.30;;;0.70;99.90;;;;;;4936687;28;20539;-95
2023/04/03 06:20:03;;;;;;;5.88;1.98;;;1.50;99.90;;;;;;4935613;28;20412;-93
2023/04/03 06:22:30;;;;;;;6.45;1.95;;;0.90;99.90;;;;;;4936542;28;20455;-93
2023/04/03 06:24:56;;;;;;;8.25;2.40;;;1.00;99.90;;;;;;4935481;28;20451;-94
2023/04/03 06:27:22;;;;;;;9.43;2.38;;;1.00;99.90;;;;;;4935765;28;20443;-94
2023/04/03 06:29:48;;;;;;;5.95;2.22;;;1.10;99.90;;;;;;4936590;28;20409;-93
2023/04/03 06:32:15;;;;;;;9.10;2.50;;;1.10;99.90;;;;;;4934915;28;20443;-93
2023/04/03 06:34:41;;;;;;;6.05;2.20;;;1.20;99.90;;;;;;4936279;28;20420;-94
2023/04/03 06:37:15;;;;;;;8.43;2.63;;;1.50;99.90;;;;;;4935405;28;20486;-94
2023/04/03 06:39:41;;;;;;;9.43;2.53;;;1.50;99.90;;;;;;4936813;28;20431;-93
2023/04/03 06:42:07;;;;;;;6.32;2.50;;;1.70;99.90;;;;;;4934761;28;20412;-94
2023/04/03 06:44:34;;;;;;;6.82;2.75;;;1.50;99.90;;;;;;4936767;28;20919;-95
2023/04/03 06:47:00;;;;;;;6.45;2.35;;;1.70;99.90;;;;;;4938577;28;20412;-93
2023/04/03 06:49:26;;;;;;;7.72;2.80;;;1.80;99.90;;;;;;4951967;28;20963;-94
2023/04/03 06:51:52;;;;;;;9.07;3.00;;;1.80;99.90;;;;;;4936425;28;20416;-94
2023/04/03 06:54:18;;;;;;;7.25;3.10;;;2.20;99.90;;;;;;4936845;28;20518;-94
2023/04/03 06:56:44;;;;;;;7.32;2.53;;;2.70;99.90;;;;;;4937268;28;20931;-93
2023/04/03 06:59:11;;;;;;;8.20;2.80;;;2.20;99.90;;;;;;4934287;28;20467;-94
2023/04/03 07:01:40;;;;;;;8.38;2.70;;;2.30;99.90;;;;;;4941959;28;20408;-96
2023/04/03 07:04:06;;;;;;;7.38;2.85;;;2.30;99.90;;;;;;4936771;28;20423;-94
2023/04/03 07:06:33;;;;;;;7.13;2.17;;;2.30;99.90;;;;;;4938479;28;20412;-95
2023/04/03 07:08:59;;;;;;;7.30;2.05;;;2.10;99.90;;;;;;4937854;28;20508;-94
2023/04/03 07:11:25;;;;;;;6.45;2.50;;;2.50;99.90;;;;;;4940039;28;20456;-94
2023/04/03 07:13:52;;;;;;;7.97;2.58;;;2.90;99.90;;;;;;4937916;28;20416;-94
2023/04/03 07:16:18;;;;;;;6.38;2.47;;;2.70;99.90;;;;;;4943368;28;20436;-93
2023/04/03 07:18:44;;;;;;;8.00;2.10;;;2.70;99.90;;;;;;4939511;28;20814;-93
2023/04/03 07:21:13;;;;;;;5.40;2.20;;;3.20;99.90;;;;;;4937444;28;20436;-96
2023/04/03 07:23:46;;;;;;;5.88;2.00;;;2.90;99.90;;;;;;4938601;28;20500;-95
2023/04/03 07:26:15;;;;;;;6.75;1.88;;;3.20;99.90;;;;;;4938412;28;20407;-96
2023/04/03 07:28:41;;;;;;;5.55;1.33;;;3.30;99.90;;;;;;4938696;28;20424;-94
2023/04/03 07:31:11;;;;;;;6.45;1.75;;;3.40;99.90;;;;;;4943319;28;20892;-94
2023/04/03 07:33:38;;;;;;;6.63;1.70;;;3.20;99.90;;;;;;4943110;28;20452;-94
2023/04/03 07:36:04;;;;;;;5.72;1.50;;;3.30;99.90;;;;;;4938841;28;20437;-92
2023/04/03 07:38:30;;;;;;;4.90;1.42;;;3.30;99.90;;;;;;4938999;28;20415;-93
2023/04/03 07:40:56;;;;;;;5.33;1.43;;;3.30;99.90;;;;;;4939701;28;20408;-94
2023/04/03 07:43:24;;;;;;;4.80;1.07;;;3.70;99.90;;;;;;4939643;28;20415;-95
2023/04/03 07:45:54;;;;;;;5.60;1.17;;;3.60;99.90;;;;;;4939141;28;20470;-94
2023/04/03 07:48:26;;;;;;;5.63;1.00;;;3.90;99.90;;;;;;4940960;28;20465;-95
2023/04/03 07:51:00;;;;;;;5.30;1.25;;;4.00;99.90;;;;;;4969704;28;20416;-94
2023/04/03 07:53:26;;;;;;;4.47;1.08;;;3.90;99.90;;;;;;4940305;28;20467;-93
2023/04/03 07:55:55;;;;;;;4.07;1.13;;;3.90;99.90;;;;;;4939943;28;20482;-94
2023/04/03 07:58:37;;;;;;;5.82;1.20;;;3.80;99.90;;;;;;4962436;28;20412;-94
2023/04/03 08:01:03;;;;;;;4.15;0.95;;;4.20;99.90;;;;;;4943719;28;20483;-93
2023/04/03 08:03:35;;;;;;;4.88;1.10;;;4.10;99.90;;;;;;4943805;28;20428;-94
2023/04/03 08:06:06;;;;;;;4.05;1.10;;;4.20;99.90;;;;;;4943572;28;20922;-94
2023/04/03 08:08:35;;;;;;;4.78;1.00;;;4.70;99.90;;;;;;4942209;28;20408;-94
2023/04/03 08:11:30;;;;;;;5.38;0.80;;;4.50;99.90;;;;;;4947643;28;20408;-95
2023/04/03 08:13:57;;;;;;;5.10;0.80;;;5.00;99.00;;;;;;4957301;28;20536;-95
2023/04/03 08:16:43;;;;;;;4.13;0.73;;;4.30;99.90;;;;;;4949171;28;20440;-96
2023/04/03 08:19:21;;;;;;;5.10;0.82;;;4.70;97.70;;;;;;4966072;28;20412;-95
2023/04/03 08:22:00;;;;;;;5.43;0.90;;;4.70;96.10;;;;;;4944013;28;20415;-95
2023/04/03 08:24:26;;;;;;;4.38;0.80;;;5.20;98.60;;;;;;4940971;28;20404;-94
2023/04/03 08:26:52;;;;;;;5.07;0.80;;;4.80;99.90;;;;;;4947358;28;20415;-95
2023/04/03 08:30:12;;;;;;;4.13;0.90;;;4.90;98.70;;;;;;4943822;28;20424;-96
2023/04/03 08:32:42;;;;;;;4.97;1.00;;;5.20;98.30;;;;;;4934549;28;20404;-96
2023/04/03 08:35:16;;;;;;;7.07;1.05;;;5.20;97.60;;;;;;4960070;28;20463;-95
2023/04/03 08:37:54;;;;;;;4.63;0.88;;;5.30;99.90;;;;;;4947745;28;20458;-95
2023/04/03 08:40:42;;;;;;;;;;;;;;;;;;;;;
2023/04/03 08:43:53;;;;;;;3.03;0.60;;;5.60;83.90;;;;;;4970132;28;20402;-95
2023/04/03 08:46:36;;;;;;;;;;;;;;;;;;;;;
2023/04/03 08:56:42;;;;;;;3.20;0.40;;;5.90;82.60;;;;;;5053787;23;20426;-95
2023/04/03 08:59:25;;;;;;;4.88;0.90;;;6.10;72.30;;;;;;4970282;28;20417;-94
2023/04/03 09:01:55;;;;;;;2.50;0.40;;;5.90;81.40;;;;;;4965336;28;20407;-96
2023/04/03 09:04:31;;;;;;;2.92;0.38;;;6.00;71.10;;;;;;4961834;28;20437;-95
2023/04/03 09:07:51;;;;;;;;;;;;;;;;;;;;;
2023/04/03 09:10:45;;;;;;;1.80;0.30;;;6.60;66.40;;;;;;5501809;23;20417;-95
2023/04/03 09:20:35;;;;;;;2.72;0.70;;;6.70;59.00;;;;;;5122130;23;20861;-94
2023/04/03 09:23:43;;;;;;;2.13;0.40;;;6.80;60.70;;;;;;4908644;29;20493;-95
2023/04/03 09:26:53;;;;;;;2.73;0.40;;;6.90;59.90;;;;;;4969491;28;20496;-96
2023/04/03 09:29:35;;;;;;;2.50;0.38;;;7.00;64.50;;;;;;4967439;28;20421;-95
2023/04/03 09:32:09;;;;;;;1.70;0.38;;;7.20;60.90;;;;;;4963664;28;20426;-95
2023/04/03 09:34:44;;;;;;;3.10;0.40;;;7.30;60.50;;;;;;4961886;28;20422;-94
2023/04/03 09:37:41;;;;;;;3.67;0.50;;;7.50;60.80;;;;;;4964549;28;20477;-96
2023/04/03 09:40:34;;;;;;;2.08;0.50;;;7.50;64.70;;;;;;4970660;28;20418;-94
2023/04/03 09:43:30;;;;;;;1.50;0.30;;;7.40;63.80;;;;;;4966617;28;20418;-95
2023/04/03 09:46:19;;;;;;;2.22;0.32;;;7.60;61.60;;;;;;4974896;28;20422;-94
2023/04/03 09:51:34;;;;;;;1.92;0.30;;;7.70;64.40;;;;;;4975526;28;20499;-95
2023/04/03 09:54:35;;;;;;;3.40;0.30;;;7.80;64.00;;;;;;4959231;28;20424;-95
2023/04/03 09:57:07;;;;;;;1.65;0.30;;;7.90;60.00;;;;;;4959697;28;20495;-93
2023/04/03 09:59:33;;;;;;;1.27;0.20;;;8.10;56.90;;;;;;4944303;28;20419;-93
2023/04/03 10:02:21;;;;;;;1.45;0.20;;;8.00;52.80;;;;;;4939977;28;20615;-93
2023/04/03 10:04:57;;;;;;;2.03;0.20;;;8.40;53.60;;;;;;4959818;28;20417;-95
2023/04/03 10:07:41;;;;;;;1.92;0.40;;;8.80;52.30;;;;;;4940633;28;20408;-94
2023/04/03 10:10:22;;;;;;;1.63;0.28;;;9.70;55.60;;;;;;4937970;28;20420;-93
2023/04/03 10:13:11;;;;;;;1.70;0.22;;;9.70;55.30;;;;;;4938476;28;20479;-95
2023/04/03 10:15:42;;;;;;;1.80;0.30;;;10.70;55.20;;;;;;4937208;28;20427;-95
2023/04/03 10:18:32;;;;;;;3.92;0.30;;;11.00;53.30;;;;;;4944702;28;20444;-94
2023/04/03 10:21:45;;;;;;;1.20;0.20;;;11.70;49.70;;;;;;4958324;28;20452;-95
2023/04/03 10:24:47;;;;;;;1.20;0.20;;;12.30;44.20;;;;;;4893653;29;20545;-95
2023/04/03 10:27:45;;;;;;;1.70;0.20;;;12.70;42.00;;;;;;4905543;29;20433;-96
2023/04/03 10:30:43;;;;;;;1.00;0.20;;;12.90;40.50;;;;;;4909573;29;20491;-95
2023/04/03 10:33:59;;;;;;;0.85;0.17;;;13.00;40.20;;;;;;4909578;29;20409;-96
2023/04/03 10:37:15;;;;;;;1.25;0.20;;;13.10;38.70;;;;;;4929640;29;20448;-96
2023/04/03 10:40:38;;;;;;;2.08;0.30;;;13.10;38.80;;;;;;4888621;29;20434;-94
2023/04/03 10:43:47;;;;;;;1.98;0.30;;;13.60;43.60;;;;;;4887778;29;20417;-96
2023/04/03 10:46:37;;;;;;;1.65;0.30;;;13.70;43.60;;;;;;4880997;29;20421;-95
2023/04/03 10:49:31;;;;;;;1.70;0.30;;;14.10;43.70;;;;;;4932863;28;20424;-94
2023/04/03 10:52:00;;;;;;;1.17;0.20;;;14.40;40.50;;;;;;4936433;28;20490;-94
2023/04/03 10:54:37;;;;;;;1.83;0.20;;;14.70;39.20;;;;;;4957880;28;20412;-95
2023/04/03 10:57:06;;;;;;;0.88;0.20;;;14.60;41.90;;;;;;4940508;28;20419;-92
2023/04/03 10:59:49;;;;;;;1.35;0.20;;;14.90;39.30;;;;;;4940475;28;20416;-95
2023/04/03 11:02:52;;;;;;;1.48;0.30;;;15.20;37.10;;;;;;4950608;28;20427;-96
2023/04/03 11:05:40;;;;;;;1.58;0.30;;;15.20;37.90;;;;;;4946738;28;20435;-95
2023/04/03 11:08:54;;;;;;;1.65;0.30;;;15.20;36.90;;;;;;4957860;28;20424;-96
2023/04/03 11:11:47;;;;;;;1.90;0.30;;;15.20;40.00;;;;;;4961033;28;20436;-94
2023/04/03 11:14:41;;;;;;;1.23;0.20;;;15.60;38.30;;;;;;4944767;28;20516;-95
2023/04/03 11:17:13;;;;;;;1.10;0.20;;;15.60;37.60;;;;;;4944261;28;20450;-94
2023/04/03 11:19:48;;;;;;;1.53;0.30;;;15.90;35.10;;;;;;4967707;28;20416;-95
2023/04/03 11:22:38;;;;;;;2.00;0.30;;;15.80;36.20;;;;;;4946095;28;20423;-96
2023/04/03 11:25:32;;;;;;;2.70;0.30;;;15.80;34.80;;;;;;4946042;28;20495;-93
2023/04/03 11:28:06;;;;;;;0.95;0.20;;;15.70;34.90;;;;;;4958266;28;20421;-96
2023/04/03 11:31:06;;;;;;;1.20;0.20;;;15.80;35.50;;;;;;4950429;28;20424;-96
2023/04/03 11:34:01;;;;;;;1.30;0.20;;;15.70;35.40;;;;;;4962396;28;20427;-94
2023/04/03 11:36:41;;;;;;;0.90;0.20;;;15.90;34.30;;;;;;4958038;28;20850;-95
2023/04/03 11:39:49;;;;;;;1.55;0.30;;;15.90;35.10;;;;;;4947691;28;20446;-95
2023/04/03 11:42:29;;;;;;;1.63;0.20;;;16.40;35.00;;;;;;4961751;28;20977;-95
2023/04/03 11:48:37;;;;;;;0.85;0.15;;;16.20;33.80;;;;;;4978758;28;20411;-94
2023/04/03 11:51:49;;;;;;;1.17;0.20;;;16.30;32.40;;;;;;4953399;29;20429;-95
2023/04/03 11:55:05;;;;;;;0.98;0.28;;;16.40;34.00;;;;;;4915121;29;20410;-95
2023/04/03 11:58:06;;;;;;;1.70;0.30;;;16.40;33.10;;;;;;4927459;29;20530;-95
2023/04/03 12:01:21;;;;;;;1.10;0.20;;;16.30;33.20;;;;;;4945669;29;20429;-96
2023/04/03 12:04:10;;;;;;;1.13;0.20;;;16.30;32.40;;;;;;4922717;29;20490;-96
2023/04/03 12:07:18;;;;;;;1.20;0.20;;;16.20;35.00;;;;;;4930308;29;20442;-95
2023/04/03 12:10:03;;;;;;;1.27;0.20;;;16.30;31.60;;;;;;4858388;29;20457;-94
2023/04/03 12:13:20;;;;;;;0.80;0.30;;;16.30;32.40;;;;;;4891293;29;20420;-96
2023/04/03 12:15:51;;;;;;;1.63;0.20;;;16.30;34.70;;;;;;4924684;29;20410;-94
2023/04/03 12:19:04;;;;;;;1.67;0.20;;;16.50;35.90;;;;;;4922031;29;20480;-95
2023/04/03 12:21:46;;;;;;;1.77;0.20;;;17.00;34.60;;;;;;4942045;29;20418;-93
2023/04/03 12:24:21;;;;;;;1.37;0.23;;;17.40;32.70;;;;;;4944522;29;20429;-95
2023/04/03 12:26:50;;;;;;;2.47;0.20;;;17.70;31.00;;;;;;4943155;29;20414;-94
2023/04/03 12:29:33;;;;;;;1.98;0.30;;;17.50;31.90;;;;;;4917494;29;20822;-96
2023/04/03 12:32:32;;;;;;;2.97;0.28;;;17.70;34.20;;;;;;4930156;29;20465;-96
2023/04/03 12:35:26;;;;;;;1.90;0.30;;;17.90;32.40;;;;;;4939566;29;20649;-96
2023/04/03 12:38:33;;;;;;;1.10;0.20;;;18.40;34.50;;;;;;4939889;29;20468;-96
2023/04/03 12:41:17;;;;;;;1.17;0.30;;;18.80;32.70;;;;;;4939735;28;20422;-96
2023/04/03 12:44:08;;;;;;;1.60;0.40;;;19.10;31.00;;;;;;4936846;29;20489;-95
2023/04/03 12:46:59;;;;;;;1.45;0.30;;;19.30;31.40;;;;;;4943936;29;20429;-96
2023/04/03 12:50:03;;;;;;;1.65;0.30;;;19.40;30.10;;;;;;4927996;29;20429;-95
2023/04/03 12:52:47;;;;;;;2.45;0.30;;;19.70;30.40;;;;;;4929668;28;20448;-95
2023/04/03 12:55:18;;;;;;;1.63;0.40;;;19.40;30.00;;;;;;4940932;28;20482;-95
2023/04/03 12:57:44;;;;;;;1.95;0.30;;;19.60;33.60;;;;;;4943439;28;20738;-95
2023/04/03 13:00:59;;;;;;;1.77;0.20;;;19.90;30.40;;;;;;4948546;28;20435;-96
2023/04/03 13:03:29;;;;;;;1.98;0.40;;;20.10;29.00;;;;;;4972932;28;20447;-95
2023/04/03 13:06:24;;;;;;;2.97;0.32;;;19.70;29.00;;;;;;4950366;28;20415;-95
2023/04/03 13:08:59;;;;;;;1.55;0.30;;;19.80;29.60;;;;;;4946095;28;20989;-94
2023/04/03 13:11:40;;;;;;;2.30;0.33;;;19.90;30.00;;;;;;4947577;28;20413;-95
2023/04/03 13:14:35;;;;;;;1.63;0.30;;;19.80;32.40;;;;;;4958014;28;20420;-96
2023/04/03 13:17:15;;;;;;;1.73;0.30;;;20.30;33.60;;;;;;4948842;28;20475;-95
2023/04/03 13:19:46;;;;;;;1.83;0.30;;;20.60;30.30;;;;;;4951851;28;20424;-96
2023/04/03 13:22:50;;;;;;;1.08;0.20;;;20.60;30.00;;;;;;4947736;28;20463;-95
2023/04/03 13:25:23;;;;;;;2.15;0.30;;;20.00;29.30;;;;;;4876353;29;20441;-95
2023/04/03 13:28:04;;;;;;;1.33;0.30;;;19.50;28.80;;;;;;4887170;28;20403;-95
2023/04/03 13:30:37;;;;;;;1.35;0.30;;;19.60;29.10;;;;;;4951331;28;20392;-96
2023/04/03 13:33:37;;;;;;;1.58;0.40;;;19.70;29.40;;;;;;4950070;28;20424;-95
2023/04/03 13:36:24;;;;;;;1.23;0.30;;;19.70;29.10;;;;;;4951693;28;20436;-95
2023/04/03 13:39:06;;;;;;;1.58;0.30;;;19.40;33.20;;;;;;4947681;28;20431;-96
2023/04/03 13:41:36;;;;;;;2.38;0.30;;;19.90;32.60;;;;;;4959543;28;20495;-93
2023/04/03 13:44:23;;;;;;;2.00;0.32;;;20.10;32.80;;;;;;4945571;28;20423;-96
2023/04/03 13:47:15;;;;;;;1.40;0.30;;;19.60;29.80;;;;;;4959445;28;20416;-95
2023/04/03 13:50:12;;;;;;;1.87;0.30;;;19.30;32.60;;;;;;4962790;28;20459;-95
2023/04/03 13:52:47;;;;;;;1.20;0.20;;;19.00;29.40;;;;;;4957051;28;20408;-96
2023/04/03 13:55:20;;;;;;;1.35;0.25;;;18.40;30.70;;;;;;4950356;28;20400;-96
2023/04/03 13:58:18;;;;;;;1.63;0.20;;;17.90;29.80;;;;;;4952589;28;20468;-94
2023/04/03 14:01:10;;;;;;;2.42;0.30;;;17.60;30.90;;;;;;4951304;28;20428;-95
2023/04/03 14:03:57;;;;;;;1.58;0.40;;;17.30;32.00;;;;;;4963475;28;20420;-96